Time;durP1;ratioP1;P1;durP2;ratioP2;P2;SDS_P1;SDS_P2;PMS_P1;PMS_P2;Temp;Humidity;BMP_temperature;BMP_pressure;BME280_temperature;BME280_humidity;BME280_pressure;Samples;Min_cycle;Max_cycle;Signal;HPM_P1;HPM_P2
2022/10/28 00:01:07;;;;;;;22.02;15.07;;;4.80;99.90;;;;;;5023134;28;20037;-82
2022/10/28 00:03:37;;;;;;;21.92;14.90;;;4.80;99.90;;;;;;5018765;28;20640;-80
2022/10/28 00:06:16;;;;;;;20.77;13.63;;;4.70;99.90;;;;;;5034532;28;20029;-81
2022/10/28 00:08:42;;;;;;;25.08;17.30;;;4.60;99.90;;;;;;5036271;28;20024;-80
2022/10/28 00:11:14;;;;;;;23.05;13.90;;;4.70;99.90;;;;;;5033892;28;20024;-81
2022/10/28 00:13:42;;;;;;;24.35;15.98;;;4.70;99.90;;;;;;5018894;28;20109;-80
2022/10/28 00:16:22;;;;;;;22.20;16.42;;;4.70;99.90;;;;;;5026072;28;20018;-80
2022/10/28 00:18:51;;;;;;;20.40;14.43;;;4.70;99.90;;;;;;5029403;28;20582;-80
2022/10/28 00:21:20;;;;;;;25.13;15.38;;;4.70;99.90;;;;;;5034052;28;20036;-81
2022/10/28 00:23:46;;;;;;;22.35;15.18;;;4.70;99.90;;;;;;5034027;28;20100;-80
2022/10/28 00:26:14;;;;;;;24.17;14.48;;;4.70;99.90;;;;;;5032803;28;20092;-80
2022/10/28 00:28:45;;;;;;;25.25;14.68;;;4.70;99.90;;;;;;5034067;28;20021;-81
2022/10/28 00:31:12;;;;;;;23.10;13.88;;;4.60;99.90;;;;;;5033677;28;20122;-79
2022/10/28 00:33:39;;;;;;;22.17;13.88;;;4.70;99.90;;;;;;5028095;28;20026;-80
2022/10/28 00:36:18;;;;;;;21.75;14.95;;;4.60;99.90;;;;;;5028218;28;20040;-81
2022/10/28 00:38:47;;;;;;;20.98;12.65;;;4.60;99.90;;;;;;5033723;28;20026;-82
2022/10/28 00:41:20;;;;;;;22.77;15.10;;;4.70;99.90;;;;;;5049655;28;20121;-80
2022/10/28 00:43:51;;;;;;;23.00;14.30;;;4.80;99.90;;;;;;5030233;28;20029;-80
2022/10/28 00:46:22;;;;;;;24.45;14.73;;;4.80;99.90;;;;;;5031209;28;20029;-82
2022/10/28 00:48:53;;;;;;;23.10;15.60;;;4.80;99.90;;;;;;5036675;28;20336;-82
2022/10/28 00:51:22;;;;;;;17.58;12.88;;;4.90;99.90;;;;;;5032787;28;20084;-83
2022/10/28 00:53:50;;;;;;;20.10;14.05;;;4.90;99.90;;;;;;5034009;28;20018;-81
2022/10/28 00:56:19;;;;;;;19.50;13.57;;;4.90;99.90;;;;;;5033625;28;20022;-82
2022/10/28 00:58:47;;;;;;;27.92;14.57;;;4.90;99.90;;;;;;5033210;28;20517;-81
2022/10/28 01:01:13;;;;;;;18.65;13.52;;;5.00;99.90;;;;;;5033385;28;20026;-83
2022/10/28 01:03:38;;;;;;;19.40;14.52;;;5.00;99.90;;;;;;5033225;28;20695;-82
2022/10/28 01:06:05;;;;;;;23.40;15.27;;;5.00;99.90;;;;;;5031936;28;20021;-81
2022/10/28 01:08:31;;;;;;;29.95;15.85;;;5.00;99.90;;;;;;5029792;28;20025;-79
2022/10/28 01:11:03;;;;;;;18.88;13.50;;;5.10;99.90;;;;;;5031722;28;20084;-81
2022/10/28 01:13:59;;;;;;;17.88;13.02;;;5.10;99.90;;;;;;5032923;28;20033;-82
2022/10/28 01:17:14;;;;;;;22.60;13.82;;;5.10;99.90;;;;;;5031784;28;20032;-80
2022/10/28 01:20:14;;;;;;;19.63;12.75;;;5.10;99.90;;;;;;5008043;28;20073;-80
2022/10/28 01:22:59;;;;;;;20.88;13.20;;;5.00;99.90;;;;;;5034140;28;20025;-80
2022/10/28 01:25:43;;;;;;;17.15;11.88;;;5.00;99.90;;;;;;5032896;28;20033;-81
2022/10/28 01:28:30;;;;;;;17.73;12.05;;;5.10;99.90;;;;;;5033400;28;20684;-80
2022/10/28 01:31:20;;;;;;;17.85;13.65;;;5.20;99.90;;;;;;5043776;28;20021;-78
2022/10/28 01:34:21;;;;;;;21.63;13.52;;;5.30;99.90;;;;;;5043185;28;20022;-81
2022/10/28 01:37:02;;;;;;;19.00;14.15;;;5.40;99.90;;;;;;5041333;28;20055;-81
2022/10/28 01:40:00;;;;;;;17.83;12.40;;;5.50;99.90;;;;;;5032851;28;20041;-81
2022/10/28 01:42:32;;;;;;;22.23;11.55;;;5.50;99.90;;;;;;5021220;28;20055;-81
2022/10/28 01:44:58;;;;;;;19.30;12.75;;;5.50;99.90;;;;;;5031503;28;20029;-81
2022/10/28 01:47:55;;;;;;;20.05;12.48;;;5.50;99.90;;;;;;5033071;28;20028;-80
2022/10/28 01:50:38;;;;;;;15.65;11.23;;;5.50;99.90;;;;;;4992707;28;20502;-81
2022/10/28 01:53:09;;;;;;;16.13;10.80;;;5.40;99.90;;;;;;5032056;28;20112;-80
2022/10/28 01:55:45;;;;;;;20.55;11.02;;;5.40;99.90;;;;;;5031286;28;20036;-81
2022/10/28 01:58:16;;;;;;;17.35;11.25;;;5.40;99.90;;;;;;5031255;28;20471;-80
2022/10/28 02:00:44;;;;;;;14.93;10.18;;;5.40;99.90;;;;;;5032089;28;20040;-80
2022/10/28 02:03:10;;;;;;;12.60;10.07;;;5.40;99.90;;;;;;5032383;28;20469;-81
2022/10/28 02:05:41;;;;;;;15.82;10.23;;;5.40;99.90;;;;;;5031907;28;20097;-80
2022/10/28 02:08:45;;;;;;;16.77;10.48;;;5.40;99.90;;;;;;5032061;28;20021;-81
2022/10/28 02:11:37;;;;;;;14.85;9.88;;;5.40;99.90;;;;;;5033063;28;20025;-80
2022/10/28 02:14:31;;;;;;;14.00;9.80;;;5.30;99.90;;;;;;5032867;28;20466;-81
2022/10/28 02:17:02;;;;;;;14.48;9.57;;;5.30;99.90;;;;;;5030676;28;20032;-82
2022/10/28 02:20:07;;;;;;;12.20;7.90;;;5.20;99.90;;;;;;5031975;28;20092;-80
2022/10/28 02:22:47;;;;;;;12.93;10.18;;;5.20;99.90;;;;;;5031598;28;20030;-81
2022/10/28 02:25:38;;;;;;;12.32;7.97;;;5.20;99.90;;;;;;5029796;28;20033;-80
2022/10/28 02:28:09;;;;;;;12.10;7.95;;;5.20;99.90;;;;;;5031786;28;20022;-81
2022/10/28 02:30:48;;;;;;;11.40;8.48;;;5.20;99.90;;;;;;5032191;28;20024;-81
2022/10/28 02:33:36;;;;;;;14.40;8.77;;;5.20;99.90;;;;;;5036813;28;20030;-80
2022/10/28 02:36:10;;;;;;;15.68;9.73;;;5.20;99.90;;;;;;5036732;28;20026;-81
2022/10/28 02:38:41;;;;;;;12.82;9.05;;;5.20;99.90;;;;;;5020019;28;20030;-80
2022/10/28 02:41:17;;;;;;;12.27;8.52;;;5.30;99.90;;;;;;5031763;28;20509;-80
2022/10/28 02:43:47;;;;;;;11.63;8.27;;;5.20;99.90;;;;;;5031883;28;20018;-80
2022/10/28 02:46:15;;;;;;;13.93;8.93;;;5.10;99.90;;;;;;5031767;28;20395;-81
2022/10/28 02:48:58;;;;;;;13.55;9.38;;;5.00;99.90;;;;;;5032253;28;20128;-81
2022/10/28 02:51:30;;;;;;;14.07;9.73;;;5.00;99.90;;;;;;5036743;28;20394;-81
2022/10/28 02:54:05;;;;;;;12.93;9.43;;;4.80;99.90;;;;;;5036340;28;20386;-81
2022/10/28 02:56:39;;;;;;;14.90;10.60;;;4.80;99.90;;;;;;5036765;28;20118;-80
2022/10/28 02:59:10;;;;;;;15.30;9.40;;;4.80;99.90;;;;;;5035481;28;20452;-80
2022/10/28 03:01:36;;;;;;;16.10;11.65;;;4.80;99.90;;;;;;5035590;28;20375;-81
2022/10/28 03:04:03;;;;;;;12.02;9.07;;;4.70;99.90;;;;;;5035295;28;20473;-81
2022/10/28 03:06:29;;;;;;;14.57;10.20;;;4.80;99.90;;;;;;5035366;28;20041;-82
2022/10/28 03:08:55;;;;;;;13.68;10.18;;;4.80;99.90;;;;;;5034268;28;20722;-81
2022/10/28 03:11:21;;;;;;;17.92;10.38;;;5.00;99.90;;;;;;5035711;28;20113;-82
2022/10/28 03:13:47;;;;;;;15.68;10.95;;;5.10;99.90;;;;;;5033891;28;20033;-81
2022/10/28 03:16:13;;;;;;;16.67;12.27;;;5.20;99.90;;;;;;5035620;28;20034;-80
2022/10/28 03:18:39;;;;;;;14.90;10.38;;;5.30;99.90;;;;;;5034179;28;20044;-82
2022/10/28 03:21:04;;;;;;;13.95;9.98;;;5.30;99.90;;;;;;5035094;28;20033;-82
2022/10/28 03:23:30;;;;;;;12.90;9.68;;;5.30;99.90;;;;;;5035689;28;20093;-83
2022/10/28 03:25:56;;;;;;;15.95;10.50;;;5.40;99.90;;;;;;5036647;28;20025;-82
2022/10/28 03:28:22;;;;;;;14.52;9.40;;;5.50;99.90;;;;;;5035636;28;20061;-81
2022/10/28 03:30:48;;;;;;;12.38;9.65;;;5.50;99.90;;;;;;5035990;28;20057;-82
2022/10/28 03:33:14;;;;;;;17.02;10.25;;;5.50;99.90;;;;;;5035371;28;20041;-80
2022/10/28 03:35:40;;;;;;;12.98;8.90;;;5.50;99.90;;;;;;5037292;28;20021;-81
2022/10/28 03:38:06;;;;;;;17.20;10.38;;;5.40;99.90;;;;;;5051161;28;20029;-81
2022/10/28 03:40:33;;;;;;;12.73;9.25;;;5.40;99.90;;;;;;5036313;28;20037;-80
2022/10/28 03:42:59;;;;;;;13.00;9.80;;;5.30;99.90;;;;;;5036818;28;20021;-81
2022/10/28 03:45:24;;;;;;;15.00;10.75;;;5.30;99.90;;;;;;5041664;28;20402;-80
2022/10/28 03:47:50;;;;;;;16.60;11.15;;;5.20;99.90;;;;;;5035432;28;20022;-80
2022/10/28 03:50:16;;;;;;;14.25;9.73;;;5.20;99.90;;;;;;5035332;28;20490;-81
2022/10/28 03:52:43;;;;;;;13.65;10.77;;;5.10;99.90;;;;;;5035542;28;20108;-82
2022/10/28 03:55:09;;;;;;;17.35;10.55;;;5.10;99.90;;;;;;5035601;28;20025;-81
2022/10/28 03:57:35;;;;;;;14.57;10.48;;;5.10;99.90;;;;;;5037247;28;20059;-80
2022/10/28 04:00:01;;;;;;;14.27;9.70;;;5.10;99.90;;;;;;5036606;28;20037;-83
2022/10/28 04:02:27;;;;;;;16.33;10.65;;;5.10;99.90;;;;;;5033311;28;20045;-81
2022/10/28 04:04:53;;;;;;;15.65;10.30;;;5.20;99.90;;;;;;5033367;28;20029;-81
2022/10/28 04:07:22;;;;;;;16.48;8.50;;;5.10;99.90;;;;;;5035238;28;20475;-81
2022/10/28 04:09:50;;;;;;;14.95;9.70;;;5.10;99.90;;;;;;5035199;28;20059;-80
2022/10/28 04:12:17;;;;;;;15.65;9.15;;;5.10;99.90;;;;;;5035015;28;20052;-80
2022/10/28 04:14:46;;;;;;;20.02;11.95;;;5.10;99.90;;;;;;5033358;28;20458;-81
2022/10/28 04:17:12;;;;;;;16.45;9.73;;;5.10;99.90;;;;;;5034114;28;20030;-81
2022/10/28 04:19:38;;;;;;;17.90;12.07;;;5.10;99.90;;;;;;5035615;28;20506;-81
2022/10/28 04:22:04;;;;;;;15.57;8.77;;;5.10;99.90;;;;;;5040603;28;20083;-82
2022/10/28 04:24:29;;;;;;;14.13;8.68;;;5.10;99.90;;;;;;5038168;28;20029;-81
2022/10/28 04:26:55;;;;;;;13.65;9.15;;;5.10;99.90;;;;;;5040480;28;20381;-81
2022/10/28 04:29:21;;;;;;;15.63;9.63;;;5.00;99.90;;;;;;5032394;28;20040;-81
2022/10/28 04:31:47;;;;;;;15.85;10.18;;;5.00;99.90;;;;;;5033642;28;20026;-81
2022/10/28 04:34:13;;;;;;;17.13;9.55;;;5.00;99.90;;;;;;5035431;28;20025;-81
2022/10/28 04:36:39;;;;;;;15.93;9.50;;;5.00;99.90;;;;;;5032506;28;20029;-82
2022/10/28 04:39:04;;;;;;;16.27;10.50;;;5.00;99.90;;;;;;5033302;28;20026;-82
2022/10/28 04:41:30;;;;;;;14.32;9.77;;;5.10;99.90;;;;;;5032777;28;20056;-83
2022/10/28 04:43:56;;;;;;;15.65;9.30;;;5.00;99.90;;;;;;5032800;28;20079;-81
2022/10/28 04:46:22;;;;;;;15.57;9.90;;;5.00;99.90;;;;;;5033848;28;20120;-81
2022/10/28 04:48:48;;;;;;;14.80;10.18;;;5.00;99.90;;;;;;5033497;28;20069;-80
2022/10/28 04:51:14;;;;;;;18.45;10.82;;;5.10;99.90;;;;;;5033323;28;20148;-80
2022/10/28 04:53:40;;;;;;;17.30;9.52;;;5.10;99.90;;;;;;5033008;28;20367;-83
2022/10/28 04:56:06;;;;;;;17.55;10.63;;;5.20;99.90;;;;;;5033742;28;20026;-83
2022/10/28 04:58:31;;;;;;;23.15;10.85;;;5.10;99.90;;;;;;5033399;28;20028;-81
2022/10/28 05:00:57;;;;;;;17.40;11.55;;;5.20;99.90;;;;;;5028895;28;20033;-83
2022/10/28 05:03:23;;;;;;;17.38;11.13;;;5.30;99.90;;;;;;5031976;28;20033;-84
2022/10/28 05:05:49;;;;;;;13.63;9.70;;;5.40;99.90;;;;;;5033365;28;20044;-83
2022/10/28 05:08:15;;;;;;;16.45;11.48;;;5.50;99.90;;;;;;5032347;28;20399;-83
2022/10/28 05:10:41;;;;;;;18.80;10.68;;;5.40;99.90;;;;;;5032073;28;20017;-82
2022/10/28 05:13:07;;;;;;;16.33;10.32;;;5.50;99.90;;;;;;5031510;28;20021;-83
2022/10/28 05:15:32;;;;;;;19.23;11.88;;;5.50;99.90;;;;;;5033560;28;20083;-84
2022/10/28 05:17:58;;;;;;;16.42;10.80;;;5.50;99.90;;;;;;5033802;28;20028;-83
2022/10/28 05:20:24;;;;;;;14.95;9.32;;;5.50;99.90;;;;;;5035243;28;20045;-80
2022/10/28 05:22:52;;;;;;;18.73;11.32;;;5.40;99.90;;;;;;5041771;28;20013;-79
2022/10/28 05:25:18;;;;;;;;;;;5.30;99.90;;;;;;5044614;28;20033;-80
2022/10/28 05:27:45;;;;;;;15.75;10.07;;;5.20;99.90;;;;;;5034246;28;19909;-81
2022/10/28 05:30:11;;;;;;;19.30;11.85;;;5.10;99.90;;;;;;5032794;28;20014;-81
2022/10/28 05:32:37;;;;;;;20.00;12.23;;;5.00;99.90;;;;;;5033204;28;20386;-82
2022/10/28 05:35:07;;;;;;;17.20;11.80;;;4.90;99.90;;;;;;5032061;28;20021;-82
2022/10/28 05:37:33;;;;;;;23.42;13.02;;;5.00;99.90;;;;;;5033944;28;20048;-83
2022/10/28 05:39:59;;;;;;;23.38;12.50;;;5.10;99.90;;;;;;5033084;28;20029;-81
2022/10/28 05:42:25;;;;;;;18.92;13.60;;;5.20;99.90;;;;;;5035014;28;20390;-83
2022/10/28 05:44:51;;;;;;;18.02;11.68;;;5.40;99.90;;;;;;5035124;28;20434;-84
2022/10/28 05:47:16;;;;;;;21.45;13.57;;;5.50;99.90;;;;;;5037243;28;20029;-84
2022/10/28 05:49:42;;;;;;;21.08;12.90;;;5.60;99.90;;;;;;5037567;28;20036;-84
2022/10/28 05:52:08;;;;;;;19.88;14.05;;;5.70;99.90;;;;;;5036609;28;20045;-84
2022/10/28 05:54:34;;;;;;;19.63;12.43;;;5.80;99.90;;;;;;5036607;28;20097;-84
2022/10/28 05:57:00;;;;;;;19.35;13.15;;;5.90;99.90;;;;;;5046101;28;20044;-83
2022/10/28 05:59:26;;;;;;;16.58;12.07;;;6.00;99.90;;;;;;5045752;28;20060;-86
2022/10/28 06:01:52;;;;;;;20.75;11.85;;;6.00;99.90;;;;;;5039831;28;20021;-82
2022/10/28 06:04:18;;;;;;;20.65;11.70;;;6.10;99.90;;;;;;5046863;28;20029;-84
2022/10/28 06:06:43;;;;;;;19.27;11.93;;;6.10;99.90;;;;;;5045382;28;20095;-85
2022/10/28 06:09:09;;;;;;;16.55;12.93;;;6.20;99.90;;;;;;5035447;28;20026;-82
2022/10/28 06:11:35;;;;;;;18.70;11.45;;;6.20;99.90;;;;;;5032954;28;20045;-82
2022/10/28 06:14:01;;;;;;;21.90;12.20;;;6.20;99.90;;;;;;5032456;28;20037;-83
2022/10/28 06:16:27;;;;;;;20.98;11.68;;;6.30;99.90;;;;;;5033384;28;20074;-83
2022/10/28 06:18:53;;;;;;;18.63;12.45;;;6.30;99.90;;;;;;5032581;28;20060;-85
2022/10/28 06:21:19;;;;;;;24.20;12.50;;;6.30;99.90;;;;;;5032868;28;20025;-83
2022/10/28 06:23:47;;;;;;;22.55;13.55;;;6.40;99.90;;;;;;5033096;28;20022;-83
2022/10/28 06:26:13;;;;;;;18.23;11.27;;;6.50;99.90;;;;;;5036437;28;20040;-83
2022/10/28 06:28:39;;;;;;;19.23;13.00;;;6.60;99.90;;;;;;5040660;28;20018;-83
2022/10/28 06:31:07;;;;;;;20.33;10.88;;;6.70;99.90;;;;;;5038155;28;20056;-83
2022/10/28 06:33:33;;;;;;;16.17;11.48;;;6.70;99.90;;;;;;5035937;28;20079;-82
2022/10/28 06:35:59;;;;;;;20.30;12.15;;;6.80;99.90;;;;;;5036164;28;20033;-81
2022/10/28 06:38:26;;;;;;;19.33;12.52;;;6.90;99.90;;;;;;5035861;28;20375;-80
2022/10/28 06:40:52;;;;;;;25.67;13.45;;;7.00;99.90;;;;;;5036809;28;20041;-82
2022/10/28 06:43:18;;;;;;;17.17;11.70;;;7.10;99.90;;;;;;5037113;28;20029;-82
2022/10/28 06:45:45;;;;;;;18.10;11.57;;;7.20;99.90;;;;;;5037108;28;20033;-83
2022/10/28 06:48:12;;;;;;;21.83;14.00;;;7.20;99.90;;;;;;5036482;28;20018;-83
2022/10/28 06:50:38;;;;;;;16.40;11.02;;;7.20;99.90;;;;;;5036916;28;20095;-84
2022/10/28 06:53:05;;;;;;;19.65;12.18;;;7.30;99.90;;;;;;5037117;28;20604;-84
2022/10/28 06:55:31;;;;;;;18.83;12.02;;;7.20;99.90;;;;;;5037175;28;20030;-84
2022/10/28 06:58:01;;;;;;;19.73;11.32;;;7.20;99.90;;;;;;5038912;28;20026;-83
2022/10/28 07:00:28;;;;;;;19.30;14.30;;;7.20;99.90;;;;;;5032834;28;20041;-83
2022/10/28 07:02:55;;;;;;;21.58;12.50;;;7.20;99.90;;;;;;5036677;28;20025;-86
2022/10/28 07:05:22;;;;;;;18.80;12.57;;;7.30;99.90;;;;;;5037525;28;20074;-83
2022/10/28 07:07:48;;;;;;;19.52;11.98;;;7.30;99.90;;;;;;5034799;28;20020;-85
2022/10/28 07:10:14;;;;;;;18.00;11.70;;;7.40;99.90;;;;;;5035794;28;20073;-82
2022/10/28 07:12:40;;;;;;;19.33;11.73;;;7.50;99.90;;;;;;5035006;28;20026;-84
2022/10/28 07:15:07;;;;;;;15.82;10.85;;;7.50;99.90;;;;;;5037702;28;20052;-84
2022/10/28 07:17:32;;;;;;;18.15;11.15;;;7.50;99.90;;;;;;5033816;28;20033;-80
2022/10/28 07:19:58;;;;;;;13.65;10.00;;;7.50;99.90;;;;;;5039551;28;20055;-81
2022/10/28 07:22:24;;;;;;;15.40;10.95;;;7.60;99.90;;;;;;5039115;28;20029;-84
2022/10/28 07:24:50;;;;;;;20.00;12.88;;;7.60;99.90;;;;;;5035993;28;20025;-82
2022/10/28 07:27:16;;;;;;;18.02;11.18;;;7.70;99.90;;;;;;5034275;28;20025;-82
2022/10/28 07:29:42;;;;;;;16.30;10.85;;;7.60;99.90;;;;;;5037483;28;20025;-82
2022/10/28 07:32:07;;;;;;;19.65;11.63;;;7.80;99.90;;;;;;5036573;28;20382;-82
2022/10/28 07:34:33;;;;;;;18.98;12.00;;;7.90;99.90;;;;;;5035390;28;20022;-82
2022/10/28 07:36:59;;;;;;;17.48;11.38;;;8.00;99.90;;;;;;5034039;28;20030;-82
2022/10/28 07:39:25;;;;;;;17.80;11.23;;;8.00;99.90;;;;;;5033253;28;20497;-82
2022/10/28 07:41:51;;;;;;;16.45;11.43;;;8.10;99.90;;;;;;5035657;28;20049;-83
2022/10/28 07:44:17;;;;;;;16.58;10.98;;;8.20;99.90;;;;;;5035889;28;20479;-84
2022/10/28 07:46:43;;;;;;;14.07;10.38;;;8.20;99.90;;;;;;5033822;28;20029;-83
2022/10/28 07:49:09;;;;;;;17.48;11.00;;;8.10;99.90;;;;;;5034688;28;20098;-83
2022/10/28 07:51:35;;;;;;;19.38;11.35;;;8.20;99.90;;;;;;5037762;28;20042;-82
2022/10/28 08:00:26;;;;;;;16.65;10.00;;;8.30;99.90;;;;;;5033747;28;20033;-82
2022/10/28 08:02:52;;;;;;;15.65;10.38;;;8.30;99.90;;;;;;5035547;28;20437;-83
2022/10/28 08:05:18;;;;;;;18.38;11.45;;;8.40;99.90;;;;;;5034823;28;20060;-82
2022/10/28 08:07:45;;;;;;;17.83;11.38;;;8.50;99.90;;;;;;5033792;28;20123;-82
2022/10/28 08:10:11;;;;;;;17.90;11.85;;;8.70;99.90;;;;;;5033096;28;20017;-82
2022/10/28 08:12:37;;;;;;;18.25;10.57;;;8.70;99.90;;;;;;5034646;28;20429;-83
2022/10/28 08:15:04;;;;;;;15.13;10.93;;;8.90;99.90;;;;;;5034928;28;20490;-82
2022/10/28 08:17:32;;;;;;;16.10;11.13;;;8.90;99.90;;;;;;5033494;28;20055;-84
2022/10/28 08:19:58;;;;;;;19.35;10.40;;;8.90;99.70;;;;;;5035764;28;20034;-83
2022/10/28 08:22:24;;;;;;;18.15;11.45;;;8.90;99.80;;;;;;5035363;28;20044;-84
2022/10/28 08:24:50;;;;;;;16.60;11.13;;;9.00;99.50;;;;;;5041476;28;20050;-83
2022/10/28 08:27:16;;;;;;;19.25;11.93;;;9.10;99.30;;;;;;5039103;28;20076;-83
2022/10/28 08:29:42;;;;;;;18.10;11.65;;;9.20;99.10;;;;;;5037011;28;20029;-79
2022/10/28 08:32:08;;;;;;;17.15;11.80;;;9.30;98.90;;;;;;5034716;28;20087;-83
2022/10/28 08:34:34;;;;;;;22.05;12.93;;;9.40;98.70;;;;;;5034805;28;20107;-83
2022/10/28 08:37:00;;;;;;;18.52;10.27;;;9.50;98.80;;;;;;5036740;28;20017;-84
2022/10/28 08:39:26;;;;;;;16.67;11.05;;;9.50;98.20;;;;;;5033195;28;20503;-85
2022/10/28 08:42:16;;;;;;;25.88;14.13;;;9.50;98.10;;;;;;5034434;28;20025;-82
2022/10/28 08:44:58;;;;;;;16.35;12.18;;;9.50;98.10;;;;;;5034585;28;20025;-84
2022/10/28 08:48:01;;;;;;;21.83;12.82;;;9.50;98.00;;;;;;5033227;28;20033;-84
2022/10/28 08:50:32;;;;;;;18.95;11.52;;;9.60;97.80;;;;;;5033777;28;20065;-84
2022/10/28 08:53:25;;;;;;;21.70;12.85;;;9.60;98.00;;;;;;5034259;28;20022;-82
2022/10/28 08:55:58;;;;;;;15.07;10.63;;;9.60;97.70;;;;;;5029018;28;20067;-81
2022/10/28 08:58:29;;;;;;;16.00;11.15;;;9.60;97.70;;;;;;5028894;28;20121;-82
2022/10/28 09:00:58;;;;;;;20.73;13.13;;;9.70;97.60;;;;;;5034685;28;20053;-83
2022/10/28 09:03:40;;;;;;;17.15;10.98;;;10.10;98.10;;;;;;5035880;28;20032;-82
2022/10/28 09:06:08;;;;;;;21.02;12.75;;;11.10;97.80;;;;;;5039897;28;20017;-83
2022/10/28 09:08:35;;;;;;;;;;;12.60;95.20;;;;;;5034445;28;20021;-81
2022/10/28 09:11:20;;;;;;;18.45;11.60;;;13.00;94.20;;;;;;5034032;28;19905;-82
2022/10/28 09:14:01;;;;;;;16.38;11.32;;;12.80;92.10;;;;;;5032310;28;20043;-82
2022/10/28 09:16:58;;;;;;;16.88;12.25;;;12.40;92.20;;;;;;5034920;28;20017;-83
2022/10/28 09:19:46;;;;;;;19.08;12.13;;;12.40;92.30;;;;;;5042018;28;20029;-80
2022/10/28 09:22:12;;;;;;;20.42;12.93;;;12.10;92.30;;;;;;5035282;28;20029;-82
2022/10/28 09:24:45;;;;;;;19.50;12.80;;;11.90;92.40;;;;;;5032997;28;20028;-81
2022/10/28 09:27:20;;;;;;;24.15;13.85;;;11.70;92.60;;;;;;5032355;28;20029;-81
2022/10/28 09:30:24;;;;;;;17.52;12.25;;;11.70;92.70;;;;;;5031639;28;20025;-81
2022/10/28 09:33:13;;;;;;;19.27;12.50;;;11.60;92.70;;;;;;5032128;28;20075;-82
2022/10/28 09:35:46;;;;;;;23.00;11.60;;;11.60;93.00;;;;;;5038227;28;20433;-82
2022/10/28 09:38:29;;;;;;;18.02;11.60;;;12.10;93.40;;;;;;5038431;28;20022;-83
2022/10/28 09:41:01;;;;;;;18.38;10.38;;;13.00;92.00;;;;;;5031787;28;20072;-82
2022/10/28 09:43:37;;;;;;;13.25;9.27;;;13.50;90.70;;;;;;5032819;28;20025;-81
2022/10/28 09:46:11;;;;;;;18.25;10.45;;;14.20;89.10;;;;;;5033515;28;20091;-83
2022/10/28 09:48:49;;;;;;;15.30;10.88;;;14.70;86.20;;;;;;5032784;28;20021;-84
2022/10/28 09:51:43;;;;;;;18.90;10.98;;;14.90;83.80;;;;;;5032677;28;20053;-82
2022/10/28 09:54:11;;;;;;;13.90;9.60;;;15.00;83.90;;;;;;5047665;28;20025;-83
2022/10/28 09:56:38;;;;;;;17.00;10.60;;;15.00;82.30;;;;;;5032648;28;20025;-81
2022/10/28 09:59:05;;;;;;;20.55;11.75;;;14.60;81.70;;;;;;5032883;28;20101;-81
2022/10/28 10:01:32;;;;;;;;;;;14.30;82.30;;;;;;5013124;28;20161;-82
2022/10/28 10:03:58;;;;;;;18.60;10.98;;;14.00;84.30;;;;;;5011413;28;20318;-81
2022/10/28 10:06:37;;;;;;;14.60;9.25;;;13.70;84.10;;;;;;5011141;28;20038;-82
2022/10/28 10:09:03;;;;;;;21.73;11.32;;;13.50;84.50;;;;;;5010572;28;20042;-84
2022/10/28 10:11:42;;;;;;;17.15;12.07;;;13.30;85.20;;;;;;5010716;28;20064;-83
2022/10/28 10:14:17;;;;;;;18.55;12.50;;;13.10;85.90;;;;;;5010648;28;20030;-84
2022/10/28 10:17:12;;;;;;;20.60;12.13;;;12.90;86.70;;;;;;5009620;28;20041;-82
2022/10/28 10:20:00;;;;;;;14.55;10.68;;;12.70;87.30;;;;;;5000538;28;20501;-82
2022/10/28 10:22:33;;;;;;;14.23;11.30;;;12.40;88.00;;;;;;5010493;28;20029;-82
2022/10/28 10:24:58;;;;;;;19.17;11.77;;;12.00;89.10;;;;;;5010346;28;20026;-80
2022/10/28 10:27:26;;;;;;;20.58;12.23;;;11.90;90.00;;;;;;5010707;28;20395;-84
2022/10/28 10:29:54;;;;;;;18.55;12.00;;;11.80;90.30;;;;;;5010752;28;20026;-83
2022/10/28 10:32:27;;;;;;;17.30;12.10;;;11.60;90.60;;;;;;5010053;28;20442;-85
2022/10/28 10:35:00;;;;;;;13.95;9.85;;;11.40;90.90;;;;;;5015974;28;20034;-81
2022/10/28 10:37:26;;;;;;;13.18;10.80;;;11.30;91.30;;;;;;5013740;28;20026;-84
2022/10/28 10:40:26;;;;;;;17.60;11.25;;;11.20;91.60;;;;;;5019188;28;20034;-82
2022/10/28 10:42:53;;;;;;;15.95;11.00;;;11.30;91.80;;;;;;5012686;28;20065;-83
2022/10/28 10:45:22;;;;;;;15.63;10.93;;;11.20;91.80;;;;;;5017507;28;20092;-83
2022/10/28 10:47:48;;;;;;;18.02;11.75;;;11.20;92.10;;;;;;5017448;28;20026;-83
2022/10/28 10:50:27;;;;;;;16.85;11.00;;;11.20;92.20;;;;;;5016206;28;20491;-81
2022/10/28 10:53:00;;;;;;;18.95;11.57;;;11.20;92.40;;;;;;5032544;28;20107;-82
2022/10/28 10:55:38;;;;;;;15.57;10.80;;;11.10;92.30;;;;;;5032705;28;20021;-81
2022/10/28 10:58:06;;;;;;;15.93;9.60;;;11.00;92.50;;;;;;5033385;28;20021;-81
2022/10/28 11:00:37;;;;;;;20.02;11.15;;;10.90;92.90;;;;;;5031615;28;20073;-82
2022/10/28 11:03:43;;;;;;;18.33;12.00;;;10.60;93.10;;;;;;5031619;28;20017;-83
2022/10/28 11:06:19;;;;;;;14.45;9.95;;;10.60;93.40;;;;;;5016266;28;20554;-83
2022/10/28 11:08:46;;;;;;;15.95;10.40;;;10.60;93.40;;;;;;5032913;28;20072;-83
2022/10/28 11:11:18;;;;;;;19.50;11.48;;;10.50;93.70;;;;;;5034790;28;20041;-83
2022/10/28 11:14:00;;;;;;;13.38;9.90;;;10.30;93.90;;;;;;5036369;28;20028;-82
2022/10/28 11:16:26;;;;;;;15.23;11.00;;;10.30;94.10;;;;;;5036328;28;20079;-82
2022/10/28 11:18:53;;;;;;;19.88;11.68;;;10.30;94.30;;;;;;5043431;28;20025;-84
2022/10/28 11:21:50;;;;;;;30.20;13.02;;;10.20;94.50;;;;;;5045850;28;20051;-82
2022/10/28 11:24:36;;;;;;;21.75;14.05;;;10.30;94.60;;;;;;5043251;28;20402;-82
2022/10/28 11:27:27;;;;;;;18.33;11.40;;;10.20;94.70;;;;;;5039880;28;20029;-82
2022/10/28 11:29:54;;;;;;;24.30;12.65;;;10.30;94.80;;;;;;5037497;28;20057;-84
2022/10/28 11:32:41;;;;;;;18.65;11.52;;;10.30;95.00;;;;;;5031371;28;20033;-82
2022/10/28 11:35:36;;;;;;;18.92;12.27;;;10.40;95.10;;;;;;5021914;28;20022;-84
2022/10/28 11:38:30;;;;;;;16.70;10.73;;;10.40;95.00;;;;;;5006373;28;20045;-81
2022/10/28 11:41:31;;;;;;;18.42;10.07;;;10.40;95.00;;;;;;5034877;28;20075;-82
2022/10/28 11:43:58;;;;;;;21.23;12.75;;;10.40;95.10;;;;;;4963198;28;20042;-82
2022/10/28 11:46:53;;;;;;;15.65;9.90;;;10.50;95.20;;;;;;5034658;28;20018;-83
2022/10/28 11:49:41;;;;;;;16.30;9.15;;;10.60;95.10;;;;;;5036887;28;20491;-83
2022/10/28 11:52:22;;;;;;;14.15;10.50;;;10.60;95.00;;;;;;5051404;28;20048;-83
2022/10/28 11:55:00;;;;;;;15.10;8.68;;;10.70;94.90;;;;;;5038292;28;20028;-85
2022/10/28 11:57:37;;;;;;;17.17;8.98;;;10.60;94.90;;;;;;5037887;28;20112;-82
2022/10/28 12:00:48;;;;;;;17.10;10.30;;;10.50;95.10;;;;;;5034968;28;20117;-82
2022/10/28 12:03:32;;;;;;;15.90;10.60;;;10.50;95.10;;;;;;5036269;28;20026;-81
2022/10/28 12:06:23;;;;;;;20.27;10.65;;;10.50;95.20;;;;;;5037324;28;20029;-82
2022/10/28 12:09:10;;;;;;;11.85;8.93;;;10.50;95.20;;;;;;5042077;28;20029;-84
2022/10/28 12:11:58;;;;;;;22.08;14.73;;;10.50;95.20;;;;;;5044994;28;20033;-81
2022/10/28 12:14:48;;;;;;;17.45;9.73;;;10.50;95.30;;;;;;5044390;28;20444;-82
2022/10/28 12:17:34;;;;;;;12.95;8.90;;;10.50;95.70;;;;;;5035134;28;20111;-83
2022/10/28 12:20:27;;;;;;;16.90;9.73;;;10.40;95.50;;;;;;5035732;28;20068;-81
2022/10/28 12:23:00;;;;;;;12.38;7.03;;;10.40;95.60;;;;;;5033855;28;20022;-82
2022/10/28 12:25:35;;;;;;;12.48;9.43;;;10.40;95.60;;;;;;5033766;28;20045;-82
2022/10/28 12:28:42;;;;;;;16.60;9.55;;;10.40;95.70;;;;;;5035488;28;20347;-82
2022/10/28 12:31:31;;;;;;;19.00;9.98;;;10.40;95.80;;;;;;5036478;28;20029;-81
2022/10/28 12:34:04;;;;;;;13.73;9.20;;;10.40;95.80;;;;;;5035171;28;20029;-82
2022/10/28 12:37:12;;;;;;;15.27;8.57;;;10.30;95.90;;;;;;5035192;28;20033;-83
2022/10/28 12:39:58;;;;;;;15.05;9.65;;;10.40;95.80;;;;;;5035971;28;20034;-80
2022/10/28 12:42:32;;;;;;;10.63;7.63;;;10.40;95.90;;;;;;5035023;28;20022;-82
2022/10/28 12:45:02;;;;;;;15.73;9.60;;;10.30;95.90;;;;;;5021542;28;20029;-83
2022/10/28 12:47:52;;;;;;;14.15;7.75;;;10.30;96.00;;;;;;5035820;28;20052;-82
2022/10/28 12:50:37;;;;;;;13.75;8.52;;;10.30;96.10;;;;;;5034751;28;20049;-83
2022/10/28 12:53:02;;;;;;;16.98;9.07;;;10.20;96.10;;;;;;5034957;28;20025;-82
2022/10/28 12:55:43;;;;;;;15.75;9.07;;;10.20;96.30;;;;;;5035536;28;20026;-82
2022/10/28 12:58:15;;;;;;;12.50;8.13;;;10.20;96.40;;;;;;5035551;28;20029;-81
2022/10/28 13:01:15;;;;;;;16.17;9.82;;;10.20;96.50;;;;;;5036020;28;20037;-81
2022/10/28 13:03:41;;;;;;;11.40;7.88;;;10.20;96.50;;;;;;5038065;28;20032;-82
2022/10/28 13:06:35;;;;;;;12.88;8.70;;;10.30;96.40;;;;;;5041089;28;20032;-81
2022/10/28 13:09:33;;;;;;;11.68;7.85;;;10.30;96.50;;;;;;5043926;28;20032;-81
2022/10/28 13:12:26;;;;;;;14.00;8.80;;;10.20;96.50;;;;;;5039821;28;20077;-83
2022/10/28 13:15:27;;;;;;;14.50;9.07;;;10.20;96.50;;;;;;5033079;28;20033;-83